Time;durP1;ratioP1;P1;durP2;ratioP2;P2;SDS_P1;SDS_P2;PMS_P1;PMS_P2;Temp;Humidity;BMP_temperature;BMP_pressure;BME280_temperature;BME280_humidity;BME280_pressure;Samples;Min_cycle;Max_cycle;Signal;HPM_P1;HPM_P2
2022/01/22 00:00:54;;;;;;;413.38;155.50;;;-2.20;99.90;;;;;;5055261;28;20025;-54
2022/01/22 00:03:20;;;;;;;384.98;145.77;;;-2.20;99.90;;;;;;5055292;28;20143;-54
2022/01/22 00:05:46;;;;;;;375.05;146.25;;;-2.20;99.90;;;;;;5054942;28;20082;-54
2022/01/22 00:08:12;;;;;;;420.70;157.73;;;-2.20;99.90;;;;;;5055043;28;20025;-54
2022/01/22 00:10:44;;;;;;;407.35;148.85;;;-2.30;99.90;;;;;;5055208;28;20049;-54
2022/01/22 00:15:56;;;;;;;399.73;148.40;;;-2.20;99.90;;;;;;5014014;28;20120;-54
2022/01/22 00:18:22;;;;;;;415.02;150.50;;;-2.30;99.90;;;;;;5060019;28;20050;-54
2022/01/22 00:20:48;;;;;;;382.08;142.82;;;-2.30;99.90;;;;;;5074803;28;20039;-54
2022/01/22 00:23:20;;;;;;;361.63;140.18;;;-2.30;99.90;;;;;;5074848;28;20024;-54
2022/01/22 00:25:45;;;;;;;352.00;138.52;;;-2.40;99.90;;;;;;5074718;28;20043;-54
2022/01/22 00:28:12;;;;;;;363.13;142.20;;;-2.30;99.90;;;;;;5074807;28;20029;-54
2022/01/22 00:30:38;;;;;;;373.25;144.63;;;-2.10;99.90;;;;;;5056770;28;20083;-55
2022/01/22 00:33:04;;;;;;;370.42;144.43;;;-2.00;99.90;;;;;;5058436;28;20048;-54
2022/01/22 00:35:30;;;;;;;371.67;144.93;;;-2.10;99.90;;;;;;5054696;28;20103;-54
2022/01/22 00:37:56;;;;;;;377.90;146.18;;;-2.00;99.90;;;;;;5054651;28;20438;-54
2022/01/22 00:40:22;;;;;;;421.48;160.73;;;-2.00;99.90;;;;;;5036826;28;20440;-54
2022/01/22 00:42:49;;;;;;;398.63;152.10;;;-2.00;99.90;;;;;;5036555;28;20036;-54
2022/01/22 00:45:17;;;;;;;404.70;153.20;;;-1.90;99.90;;;;;;5054415;28;20052;-54
2022/01/22 00:47:45;;;;;;;473.13;169.98;;;-1.80;99.90;;;;;;5036603;28;20036;-54
2022/01/22 00:50:13;;;;;;;456.33;167.15;;;-1.80;99.90;;;;;;5036844;28;20160;-54
2022/01/22 00:52:40;;;;;;;411.52;154.70;;;-1.80;99.90;;;;;;5054548;28;20025;-54
2022/01/22 00:55:07;;;;;;;407.63;153.05;;;-1.60;99.90;;;;;;5054370;28;20048;-54
2022/01/22 00:57:33;;;;;;;407.13;155.38;;;-1.70;99.90;;;;;;5054344;28;20033;-54
2022/01/22 00:59:59;;;;;;;440.20;169.98;;;-1.80;99.90;;;;;;5054412;28;20035;-54
2022/01/22 01:02:25;;;;;;;381.88;150.73;;;-1.70;99.90;;;;;;5054416;28;20025;-54
2022/01/22 01:04:51;;;;;;;577.60;208.32;;;-1.80;99.90;;;;;;5054262;28;20059;-54
2022/01/22 01:07:17;;;;;;;752.88;273.25;;;-1.70;99.90;;;;;;5053009;28;20116;-54
2022/01/22 01:09:43;;;;;;;716.25;261.40;;;-1.60;99.90;;;;;;5054304;28;20541;-54
2022/01/22 01:12:10;;;;;;;526.60;191.65;;;-1.80;99.90;;;;;;5036391;28;20040;-54
2022/01/22 01:14:52;;;;;;;435.55;162.88;;;-1.70;99.90;;;;;;5036320;28;20037;-54
2022/01/22 01:33:45;;;;;;;401.95;150.38;;;-1.50;99.90;;;;;;5057875;28;20478;-54
2022/01/22 01:36:15;;;;;;;330.00;131.70;;;-1.50;99.90;;;;;;5040393;28;20049;-54
2022/01/22 01:38:49;;;;;;;301.13;118.30;;;-1.60;99.90;;;;;;5058096;28;20036;-54
2022/01/22 01:41:31;;;;;;;271.88;112.05;;;-1.60;99.90;;;;;;5056718;28;20474;-54
2022/01/22 01:43:58;;;;;;;274.02;109.25;;;-1.60;99.90;;;;;;5039993;28;20546;-54
2022/01/22 01:46:57;;;;;;;286.70;114.78;;;-1.60;99.90;;;;;;5057924;28;20116;-54
2022/01/22 01:49:28;;;;;;;274.95;113.70;;;-1.60;99.90;;;;;;5039936;28;20028;-54
2022/01/22 01:51:57;;;;;;;276.67;116.40;;;-1.60;99.90;;;;;;5056468;28;20375;-54
2022/01/22 01:59:54;;;;;;;231.05;92.60;;;-1.70;99.90;;;;;;5057607;28;20029;-53
2022/01/22 02:02:46;;;;;;;226.43;92.78;;;-1.70;99.90;;;;;;5057868;28;20028;-54
2022/01/22 02:05:18;;;;;;;240.25;94.72;;;-1.80;99.90;;;;;;5056077;28;20046;-54
2022/01/22 02:07:45;;;;;;;247.20;96.88;;;-1.80;99.90;;;;;;5039564;28;20033;-54
2022/01/22 02:10:21;;;;;;;233.18;97.95;;;-1.80;99.90;;;;;;5057436;28;20431;-54
2022/01/22 02:23:48;;;;;;;217.70;89.18;;;-1.90;99.90;;;;;;5075885;28;20028;-54
2022/01/22 02:26:16;;;;;;;215.73;87.60;;;-2.00;99.90;;;;;;5077112;28;20017;-54
2022/01/22 02:28:51;;;;;;;214.50;87.43;;;-2.00;99.90;;;;;;5059078;28;20024;-54
2022/01/22 02:36:42;;;;;;;199.35;77.43;;;-2.00;99.90;;;;;;5055627;28;20357;-54
2022/01/22 02:39:14;;;;;;;192.73;76.70;;;-2.00;99.90;;;;;;5039139;28;20037;-54
2022/01/22 02:41:47;;;;;;;180.43;70.40;;;-2.00;99.90;;;;;;5037998;28;20119;-54
2022/01/22 02:44:33;;;;;;;177.38;70.10;;;-2.10;99.90;;;;;;5038641;28;20036;-54
2022/01/22 02:47:06;;;;;;;194.75;75.10;;;-2.20;99.90;;;;;;5038777;28;20029;-54
2022/01/22 02:49:33;;;;;;;191.63;76.07;;;-2.20;99.90;;;;;;5038651;28;20029;-54
2022/01/22 02:52:07;;;;;;;196.13;79.57;;;-2.30;99.90;;;;;;5056582;28;20036;-54
2022/01/22 02:54:36;;;;;;;212.43;84.53;;;-2.40;99.90;;;;;;5038548;28;20036;-54
2022/01/22 02:57:03;;;;;;;220.10;88.15;;;-2.50;99.90;;;;;;5056440;28;20036;-54
2022/01/22 02:59:29;;;;;;;225.65;88.22;;;-2.60;99.90;;;;;;5038462;28;20036;-54
2022/01/22 03:01:55;;;;;;;220.85;86.38;;;-2.70;99.90;;;;;;5038675;28;20119;-54
2022/01/22 03:04:21;;;;;;;208.55;85.50;;;-2.80;99.90;;;;;;5038300;28;20036;-54
2022/01/22 03:06:49;;;;;;;227.80;88.57;;;-2.90;99.90;;;;;;5056398;28;20029;-54
2022/01/22 03:09:17;;;;;;;241.18;92.82;;;-2.90;99.90;;;;;;5038332;28;20029;-54
2022/01/22 03:12:00;;;;;;;335.13;112.47;;;-2.80;99.90;;;;;;5038319;28;20467;-54
2022/01/22 03:22:53;;;;;;;321.52;110.70;;;-2.90;99.90;;;;;;5074989;28;20465;-54
2022/01/22 03:28:03;;;;;;;343.70;120.00;;;-3.00;99.90;;;;;;5074676;28;20040;-54
2022/01/22 03:30:30;;;;;;;343.08;120.50;;;-3.00;99.90;;;;;;5051068;28;20118;-54
2022/01/22 03:32:57;;;;;;;336.80;126.10;;;-3.00;99.90;;;;;;5059427;28;20021;-54
2022/01/22 03:35:27;;;;;;;315.67;120.22;;;-3.00;99.90;;;;;;5037962;28;20516;-54
2022/01/22 03:37:58;;;;;;;282.95;107.43;;;-3.10;99.90;;;;;;5037948;28;20029;-54
2022/01/22 03:40:29;;;;;;;249.93;99.78;;;-3.00;99.90;;;;;;5055743;28;20057;-54
2022/01/22 03:42:55;;;;;;;243.15;96.55;;;-3.00;99.90;;;;;;5054374;28;20028;-54
2022/01/22 03:45:23;;;;;;;246.02;92.65;;;-3.10;99.90;;;;;;5037397;28;20490;-54
2022/01/22 03:47:50;;;;;;;213.80;89.78;;;-3.30;99.90;;;;;;5070808;28;20390;-54
2022/01/22 03:50:21;;;;;;;215.57;91.32;;;-3.20;99.90;;;;;;5054218;28;20036;-54
2022/01/22 03:52:48;;;;;;;267.75;106.47;;;-3.30;99.90;;;;;;5053997;28;20431;-54
2022/01/22 03:55:29;;;;;;;252.98;101.38;;;-3.40;99.90;;;;;;5054140;28;20025;-54
2022/01/22 03:58:20;;;;;;;247.45;95.53;;;-3.50;99.90;;;;;;5041219;28;20033;-54
2022/01/22 04:01:19;;;;;;;215.10;89.50;;;-3.40;99.90;;;;;;5037231;28;20391;-54
2022/01/22 04:03:45;;;;;;;220.82;87.05;;;-3.40;99.90;;;;;;5037372;28;20078;-54
2022/01/22 04:09:13;;;;;;;270.42;101.43;;;-3.60;99.90;;;;;;4993979;28;20383;-54
2022/01/22 04:11:42;;;;;;;178.47;68.07;;;-3.60;99.90;;;;;;5055120;28;20025;-54
2022/01/22 04:14:16;;;;;;;345.15;124.00;;;-3.70;99.90;;;;;;5054690;28;20021;-54
2022/01/22 04:16:55;;;;;;;392.95;140.60;;;-3.60;99.90;;;;;;5054926;28;20025;-54
2022/01/22 04:24:54;;;;;;;343.42;134.00;;;-3.80;99.90;;;;;;5074777;28;20485;-54
2022/01/22 04:27:26;;;;;;;383.85;149.05;;;-3.70;99.90;;;;;;5074729;28;20553;-54
2022/01/22 04:29:57;;;;;;;294.15;118.13;;;-3.60;99.90;;;;;;5074646;28;20086;-54
2022/01/22 04:32:25;;;;;;;241.90;98.20;;;-3.50;99.90;;;;;;5064130;28;20437;-54
2022/01/22 04:34:51;;;;;;;232.57;93.90;;;-3.40;99.90;;;;;;5054682;28;20107;-54
2022/01/22 04:37:18;;;;;;;344.40;138.80;;;-3.50;99.90;;;;;;5054516;28;20029;-54
2022/01/22 04:39:46;;;;;;;296.38;119.90;;;-3.40;99.90;;;;;;5054664;28;20057;-54
2022/01/22 04:42:13;;;;;;;288.50;117.32;;;-3.50;99.90;;;;;;5054615;28;20049;-54
2022/01/22 04:44:49;;;;;;;312.17;125.47;;;-3.50;99.90;;;;;;5054585;28;20382;-54
2022/01/22 04:47:27;;;;;;;216.15;87.80;;;-3.40;99.90;;;;;;5036536;28;20033;-54
2022/01/22 04:52:43;;;;;;;242.18;95.75;;;-3.60;99.90;;;;;;5054912;28;20067;-54
2022/01/22 04:55:10;;;;;;;251.03;101.57;;;-3.70;99.90;;;;;;5036741;28;20059;-54
2022/01/22 04:57:43;;;;;;;229.00;92.60;;;-3.70;99.90;;;;;;5054459;28;20040;-54
2022/01/22 05:00:14;;;;;;;227.90;92.80;;;-3.80;99.90;;;;;;5053073;28;20487;-54
2022/01/22 05:02:59;;;;;;;198.82;77.90;;;-3.80;99.90;;;;;;5054423;28;20083;-54
2022/01/22 05:05:51;;;;;;;209.02;85.00;;;-3.60;99.90;;;;;;5037483;28;20033;-54
2022/01/22 05:08:34;;;;;;;209.95;87.22;;;-3.50;99.90;;;;;;5036165;28;20041;-54
2022/01/22 05:11:32;;;;;;;226.20;91.07;;;-3.60;99.90;;;;;;5043524;28;20041;-54
2022/01/22 05:13:58;;;;;;;238.73;91.57;;;-3.50;99.90;;;;;;5069301;28;20029;-54
2022/01/22 05:16:25;;;;;;;241.85;93.88;;;-3.40;99.90;;;;;;5036295;28;20087;-54
2022/01/22 05:19:01;;;;;;;243.90;99.30;;;-3.40;99.90;;;;;;5079749;28;20159;-54
2022/01/22 05:21:33;;;;;;;395.25;140.95;;;-3.50;99.90;;;;;;5072909;28;20034;-54
2022/01/22 05:24:04;;;;;;;418.63;144.63;;;-3.30;99.90;;;;;;5056084;28;20058;-54
2022/01/22 05:32:33;;;;;;;307.90;120.95;;;-3.20;99.90;;;;;;5067638;28;20492;-54
2022/01/22 05:37:50;;;;;;;388.25;144.73;;;-3.00;99.90;;;;;;5052685;28;20075;-54
2022/01/22 05:40:17;;;;;;;289.73;114.13;;;-3.00;99.90;;;;;;5036122;28;20033;-54
2022/01/22 05:42:43;;;;;;;245.05;95.32;;;-3.10;99.90;;;;;;5053867;28;20025;-54
2022/01/22 05:45:10;;;;;;;246.80;99.82;;;-3.10;99.90;;;;;;5036101;28;20036;-54
2022/01/22 05:47:36;;;;;;;239.57;96.35;;;-3.30;99.90;;;;;;5053809;28;20055;-54
2022/01/22 05:50:09;;;;;;;235.88;92.68;;;-3.30;99.90;;;;;;5053945;28;20029;-54
2022/01/22 05:52:52;;;;;;;244.95;96.32;;;-3.30;99.90;;;;;;5053833;28;20052;-54
2022/01/22 06:00:42;;;;;;;257.77;103.35;;;-3.30;99.90;;;;;;5052568;28;20029;-54
2022/01/22 06:03:18;;;;;;;257.98;103.03;;;-3.30;99.90;;;;;;5069386;28;20103;-54
2022/01/22 06:05:46;;;;;;;267.42;102.93;;;-3.30;99.90;;;;;;5052427;28;20056;-54
2022/01/22 06:08:16;;;;;;;269.73;109.18;;;-3.40;99.90;;;;;;5069254;28;20025;-54
2022/01/22 06:10:42;;;;;;;583.33;169.07;;;-3.40;99.90;;;;;;5069081;28;20033;-54
2022/01/22 06:13:12;;;;;;;661.25;191.60;;;-3.30;99.90;;;;;;5069032;28;20028;-54
2022/01/22 06:15:39;;;;;;;488.05;144.88;;;-3.20;99.90;;;;;;5069206;28;20029;-54
2022/01/22 06:18:22;;;;;;;263.77;99.90;;;-3.10;99.90;;;;;;5078365;28;20041;-54
2022/01/22 06:20:51;;;;;;;238.80;93.25;;;-3.00;99.90;;;;;;5075846;28;20557;-54
2022/01/22 06:23:18;;;;;;;248.70;96.30;;;-2.90;99.90;;;;;;5075909;28;20429;-54
2022/01/22 06:25:44;;;;;;;249.02;91.95;;;-2.70;99.90;;;;;;5075796;28;20028;-54
2022/01/22 06:28:10;;;;;;;239.25;93.90;;;-2.70;99.90;;;;;;5075898;28;20037;-54
2022/01/22 06:30:37;;;;;;;265.10;98.85;;;-2.60;99.90;;;;;;5075628;28;20131;-54
2022/01/22 06:33:03;;;;;;;435.48;130.15;;;-2.50;99.90;;;;;;5061026;28;20075;-54
2022/01/22 06:35:32;;;;;;;642.50;170.93;;;-2.50;99.90;;;;;;5039048;28;20044;-54
2022/01/22 06:38:00;;;;;;;516.92;147.15;;;-2.50;99.90;;;;;;5039134;28;20037;-54
2022/01/22 06:43:50;;;;;;;394.77;125.55;;;-2.40;99.90;;;;;;5056140;28;20029;-54
2022/01/22 06:46:24;;;;;;;468.00;133.25;;;-2.50;99.90;;;;;;5038824;28;20474;-54
2022/01/22 06:49:16;;;;;;;342.65;120.63;;;-2.40;99.90;;;;;;5056476;28;20041;-54
2022/01/22 06:52:02;;;;;;;357.98;117.22;;;-2.30;99.90;;;;;;5056142;28;20037;-54
2022/01/22 06:54:28;;;;;;;400.58;127.55;;;-2.20;99.90;;;;;;5055578;28;20033;-54
2022/01/22 06:56:54;;;;;;;431.80;134.00;;;-2.20;99.90;;;;;;5038610;28;20045;-54
2022/01/22 06:59:21;;;;;;;441.13;134.35;;;-2.20;99.90;;;;;;5071791;28;20044;-54
2022/01/22 07:01:50;;;;;;;299.42;109.18;;;-2.20;99.90;;;;;;5038290;28;20482;-54
2022/01/22 07:04:21;;;;;;;361.55;120.57;;;-2.10;99.90;;;;;;5038458;28;20041;-54
2022/01/22 07:07:12;;;;;;;357.27;122.43;;;-2.10;99.90;;;;;;5041138;28;20471;-54
2022/01/22 07:09:38;;;;;;;308.98;119.82;;;-2.10;99.90;;;;;;5038400;28;20072;-54
2022/01/22 07:12:06;;;;;;;406.77;143.63;;;-2.20;99.90;;;;;;5055056;28;20063;-54
2022/01/22 07:14:33;;;;;;;441.73;152.07;;;-2.10;99.90;;;;;;5071324;28;20029;-54
2022/01/22 07:16:59;;;;;;;475.08;158.90;;;-2.00;99.90;;;;;;5038297;28;20032;-54
2022/01/22 07:19:39;;;;;;;432.95;155.98;;;-1.90;99.90;;;;;;5038103;28;20487;-54
2022/01/22 07:22:33;;;;;;;357.42;130.50;;;-1.80;99.90;;;;;;5038144;28;20044;-54
2022/01/22 07:25:26;;;;;;;327.00;118.65;;;-1.80;99.90;;;;;;5036466;28;20052;-54
2022/01/22 07:27:54;;;;;;;324.88;113.68;;;-1.70;99.90;;;;;;5037722;28;20055;-54
2022/01/22 07:30:21;;;;;;;299.73;112.18;;;-1.70;99.90;;;;;;5041710;28;20045;-54
2022/01/22 07:32:48;;;;;;;328.42;121.85;;;-1.60;99.90;;;;;;5051090;28;20037;-54
2022/01/22 07:35:17;;;;;;;273.48;113.22;;;-1.70;99.90;;;;;;5054233;28;20386;-54
2022/01/22 07:37:44;;;;;;;301.55;116.38;;;-1.70;99.90;;;;;;5054642;28;20056;-54
2022/01/22 07:40:16;;;;;;;256.13;108.22;;;-1.80;99.90;;;;;;5037903;28;20037;-54
2022/01/22 07:42:54;;;;;;;284.67;116.28;;;-1.70;99.90;;;;;;5070852;28;20494;-54
2022/01/22 07:45:38;;;;;;;262.88;111.57;;;-1.70;99.90;;;;;;5055369;28;20043;-55
2022/01/22 07:48:09;;;;;;;234.75;103.15;;;-1.70;99.90;;;;;;5037891;28;20086;-54
2022/01/22 07:50:53;;;;;;;250.57;104.20;;;-1.50;99.90;;;;;;5055786;28;20449;-54
2022/01/22 07:53:19;;;;;;;256.25;106.13;;;-1.60;99.90;;;;;;5037439;28;20433;-54
2022/01/22 07:55:45;;;;;;;221.48;98.30;;;-1.50;99.90;;;;;;5037547;28;20056;-54
2022/01/22 07:58:14;;;;;;;234.02;103.60;;;-1.50;99.90;;;;;;5037788;28;20087;-54
2022/01/22 08:00:40;;;;;;;233.70;103.82;;;-1.50;99.90;;;;;;5037229;28;20033;-54
2022/01/22 08:03:08;;;;;;;238.13;103.75;;;-1.40;99.90;;;;;;5053995;28;20058;-54
2022/01/22 08:05:53;;;;;;;240.02;102.28;;;-1.50;99.90;;;;;;5055006;28;20098;-54
2022/01/22 08:08:38;;;;;;;252.55;108.80;;;-1.40;99.90;;;;;;5055262;28;20085;-54
2022/01/22 08:11:26;;;;;;;257.63;108.35;;;-1.30;99.90;;;;;;5054941;28;20033;-54
2022/01/22 08:13:52;;;;;;;254.55;108.35;;;-1.20;99.90;;;;;;5036869;28;20039;-54
2022/01/22 08:16:18;;;;;;;261.27;107.00;;;-1.20;99.90;;;;;;5053161;28;20513;-54
2022/01/22 08:18:44;;;;;;;231.23;98.05;;;-1.20;99.90;;;;;;5054746;28;20044;-54
2022/01/22 08:21:10;;;;;;;251.15;102.95;;;-1.20;99.90;;;;;;5053302;28;20037;-55
2022/01/22 08:24:17;;;;;;;250.48;102.25;;;-1.30;99.90;;;;;;5032349;28;20072;-54
2022/01/22 08:27:04;;;;;;;276.42;108.85;;;-1.20;99.90;;;;;;5015718;28;20021;-54
2022/01/22 08:29:30;;;;;;;235.07;102.88;;;-1.10;99.90;;;;;;5035449;28;20033;-54
2022/01/22 08:37:19;;;;;;;252.93;102.45;;;-1.00;99.90;;;;;;5035369;28;20562;-55
2022/01/22 08:39:45;;;;;;;293.50;120.03;;;-0.80;99.90;;;;;;5034637;28;20029;-55
2022/01/22 08:42:11;;;;;;;320.27;129.15;;;-0.70;99.90;;;;;;5035317;28;20040;-54
2022/01/22 08:44:40;;;;;;;300.88;118.00;;;-0.60;99.90;;;;;;5052024;28;20033;-55
2022/01/22 08:47:09;;;;;;;243.95;93.95;;;-0.60;99.90;;;;;;5052078;28;20025;-54
2022/01/22 08:49:35;;;;;;;226.25;93.53;;;-0.50;99.90;;;;;;5035213;28;20089;-55
2022/01/22 08:52:11;;;;;;;227.23;93.88;;;-0.50;99.90;;;;;;5035316;28;20028;-55
2022/01/22 08:54:39;;;;;;;247.13;98.38;;;-0.60;99.90;;;;;;5055659;28;20036;-55
2022/01/22 08:57:06;;;;;;;224.82;95.13;;;-0.60;99.90;;;;;;5056280;28;20398;-55
2022/01/22 08:59:36;;;;;;;218.35;92.15;;;-0.60;99.90;;;;;;5056586;28;20111;-55
2022/01/22 09:02:06;;;;;;;190.35;80.50;;;-0.60;99.90;;;;;;5072905;28;20039;-55
2022/01/22 09:05:10;;;;;;;160.50;69.15;;;-0.40;99.90;;;;;;5073861;28;20040;-55
2022/01/22 09:07:56;;;;;;;185.90;78.38;;;-0.30;99.90;;;;;;5073769;28;20059;-55
2022/01/22 09:10:44;;;;;;;188.75;79.20;;;-0.30;99.90;;;;;;5056313;28;20070;-55
2022/01/22 09:13:28;;;;;;;174.35;72.97;;;-0.20;99.90;;;;;;5056290;28;20036;-55
2022/01/22 09:16:14;;;;;;;130.48;58.00;;;-0.10;99.90;;;;;;5073675;28;20505;-55
2022/01/22 09:18:40;;;;;;;139.02;59.70;;;0.00;99.90;;;;;;5074087;28;20028;-55
2022/01/22 09:21:06;;;;;;;137.85;59.55;;;0.00;99.90;;;;;;5072880;28;20029;-55
2022/01/22 09:23:37;;;;;;;130.45;58.17;;;0.10;99.90;;;;;;5056192;28;20043;-55
2022/01/22 09:26:17;;;;;;;108.10;47.97;;;-0.10;99.90;;;;;;5072796;28;20036;-54
2022/01/22 09:28:46;;;;;;;125.90;57.40;;;0.20;99.90;;;;;;5072815;28;20119;-55
2022/01/22 09:31:13;;;;;;;123.97;57.10;;;0.30;99.90;;;;;;5072647;28;20044;-55
2022/01/22 09:33:40;;;;;;;131.05;59.38;;;0.30;99.90;;;;;;5072309;28;20374;-55
2022/01/22 09:36:06;;;;;;;238.82;93.10;;;0.30;99.90;;;;;;5073914;28;20111;-55
2022/01/22 09:38:51;;;;;;;143.63;61.33;;;0.20;99.90;;;;;;5073877;28;20206;-55
2022/01/22 09:41:28;;;;;;;166.43;68.80;;;0.30;99.90;;;;;;5074131;28;20170;-55
2022/01/22 09:44:15;;;;;;;145.27;59.25;;;0.40;99.90;;;;;;5055591;28;20024;-55
2022/01/22 09:46:58;;;;;;;91.03;40.53;;;0.50;99.90;;;;;;5072630;28;20528;-55
2022/01/22 09:49:45;;;;;;;68.57;30.08;;;0.70;99.90;;;;;;5073315;28;20385;-55
2022/01/22 09:52:35;;;;;;;42.80;20.75;;;0.70;99.90;;;;;;5059707;28;20348;-55
2022/01/22 09:55:21;;;;;;;53.28;23.25;;;0.80;99.90;;;;;;5077647;28;20044;-55
2022/01/22 09:57:55;;;;;;;44.92;20.80;;;0.90;99.90;;;;;;5077684;28;20036;-55
2022/01/22 10:00:25;;;;;;;40.30;19.45;;;1.00;99.90;;;;;;5077644;28;20067;-55
2022/01/22 10:02:57;;;;;;;31.33;12.32;;;1.10;99.90;;;;;;5076394;28;20048;-55
2022/01/22 10:05:38;;;;;;;27.10;11.73;;;1.20;99.90;;;;;;5076264;28;20520;-55
2022/01/22 10:08:31;;;;;;;20.75;9.52;;;1.20;99.90;;;;;;5066428;28;20080;-55
2022/01/22 10:11:21;;;;;;;19.50;9.25;;;1.30;99.90;;;;;;5077453;28;20047;-55
2022/01/22 10:14:06;;;;;;;23.30;10.38;;;1.20;99.90;;;;;;5077449;28;20086;-55
2022/01/22 10:16:39;;;;;;;28.80;12.15;;;1.20;99.90;;;;;;5077238;28;20111;-55
2022/01/22 10:19:24;;;;;;;30.25;13.85;;;1.20;99.90;;;;;;5077178;28;20090;-55
2022/01/22 10:21:58;;;;;;;27.60;12.93;;;1.20;99.90;;;;;;5077285;28;20058;-55
2022/01/22 10:30:15;;;;;;;40.92;18.67;;;1.10;99.90;;;;;;5076936;28;20576;-55
2022/01/22 10:35:28;;;;;;;45.67;21.88;;;0.90;99.90;;;;;;5077364;28;20508;-55
2022/01/22 10:38:13;;;;;;;52.28;25.05;;;1.00;99.90;;;;;;5077169;28;20044;-55
2022/01/22 10:40:42;;;;;;;48.10;22.55;;;1.00;99.90;;;;;;5076891;28;20458;-55
2022/01/22 10:43:32;;;;;;;64.65;25.23;;;1.00;99.90;;;;;;5076837;28;20060;-55
2022/01/22 10:46:12;;;;;;;49.77;22.23;;;1.10;99.90;;;;;;5076906;28;20029;-55
2022/01/22 10:48:44;;;;;;;52.97;23.00;;;1.00;99.90;;;;;;5076486;28;20257;-55
2022/01/22 10:51:13;;;;;;;54.03;23.45;;;0.90;99.90;;;;;;5076844;28;20020;-55
2022/01/22 10:53:57;;;;;;;61.78;24.25;;;0.90;99.90;;;;;;5076803;28;20047;-55
2022/01/22 10:56:24;;;;;;;49.53;21.10;;;1.00;99.90;;;;;;5076602;28;20127;-55
2022/01/22 10:59:05;;;;;;;48.92;20.70;;;1.00;99.90;;;;;;5076690;28;20036;-55
2022/01/22 11:01:43;;;;;;;51.58;22.38;;;1.00;99.90;;;;;;5076283;28;20060;-55
2022/01/22 11:04:13;;;;;;;34.75;15.48;;;0.90;99.90;;;;;;5076158;28;20112;-55
2022/01/22 11:06:46;;;;;;;29.33;13.73;;;1.10;99.90;;;;;;5076543;28;20028;-55
2022/01/22 11:09:13;;;;;;;26.65;12.93;;;1.00;99.90;;;;;;5076284;28;20047;-55
2022/01/22 11:11:41;;;;;;;42.10;20.02;;;0.90;99.90;;;;;;5076488;28;20055;-55
2022/01/22 11:14:09;;;;;;;34.35;18.60;;;1.00;99.90;;;;;;5076245;28;20099;-55
2022/01/22 11:16:37;;;;;;;47.88;23.10;;;1.00;99.90;;;;;;5076202;28;20089;-55
2022/01/22 11:19:04;;;;;;;62.92;29.05;;;1.00;99.90;;;;;;5076083;28;20067;-55
2022/01/22 11:21:35;;;;;;;52.33;23.75;;;1.00;99.90;;;;;;5076220;28;20024;-55
2022/01/22 11:24:01;;;;;;;;;;;1.00;99.90;;;;;;5076551;28;20481;-54
2022/01/22 11:26:28;;;;;;;46.33;18.75;;;1.00;99.90;;;;;;5076087;28;19919;-55
2022/01/22 11:28:55;;;;;;;57.20;23.08;;;1.00;99.90;;;;;;5075970;28;20099;-55
2022/01/22 11:31:24;;;;;;;151.63;64.10;;;1.00;99.90;;;;;;5075563;28;20074;-55
2022/01/22 11:33:53;;;;;;;41.78;22.30;;;1.10;99.90;;;;;;5075854;28;20029;-55
2022/01/22 11:36:25;;;;;;;50.55;22.85;;;1.10;99.90;;;;;;5075673;28;20088;-55
2022/01/22 11:39:01;;;;;;;56.67;26.55;;;1.10;99.90;;;;;;5075813;28;20093;-55
2022/01/22 11:41:27;;;;;;;44.22;19.27;;;1.10;99.90;;;;;;5076013;28;20031;-55
2022/01/22 11:44:04;;;;;;;42.80;18.30;;;1.10;99.90;;;;;;5075570;28;20398;-55
2022/01/22 11:46:59;;;;;;;53.45;21.52;;;0.90;99.90;;;;;;5075493;28;20064;-55
2022/01/22 11:49:29;;;;;;;87.75;45.00;;;1.00;99.90;;;;;;5044549;28;20107;-55
2022/01/22 11:52:07;;;;;;;;;;;1.00;99.90;;;;;;5075904;28;20413;-55
2022/01/22 11:54:54;;;;;;;64.00;29.35;;;1.10;99.90;;;;;;5075410;28;19912;-55
2022/01/22 11:57:21;;;;;;;83.97;43.25;;;1.20;99.90;;;;;;5075516;28;20029;-55
2022/01/22 11:59:49;;;;;;;87.70;34.58;;;1.20;99.90;;;;;;5075429;28;20028;-55
2022/01/22 12:02:16;;;;;;;96.18;33.95;;;1.20;99.90;;;;;;5075301;28;20054;-55
2022/01/22 12:04:42;;;;;;;85.22;35.33;;;1.20;99.90;;;;;;5075035;28;20152;-55
2022/01/22 12:07:08;;;;;;;113.60;47.05;;;1.10;99.90;;;;;;5075311;28;20048;-55
2022/01/22 12:15:11;;;;;;;133.85;57.28;;;1.00;99.90;;;;;;5054008;28;20037;-55
2022/01/22 12:23:06;;;;;;;135.77;54.45;;;1.10;99.90;;;;;;5054920;28;20037;-55
2022/01/22 12:25:35;;;;;;;76.20;30.23;;;1.20;99.90;;;;;;5054818;28;20479;-55
2022/01/22 12:28:10;;;;;;;69.68;29.95;;;1.20;99.90;;;;;;5054643;28;20108;-55
2022/01/22 12:30:39;;;;;;;73.60;28.63;;;1.30;99.90;;;;;;5053149;28;20076;-55
2022/01/22 12:33:12;;;;;;;70.70;31.40;;;1.30;99.90;;;;;;5069539;28;20482;-55
2022/01/22 12:35:47;;;;;;;79.47;31.33;;;1.30;99.90;;;;;;5074690;28;20798;-55
2022/01/22 12:38:22;;;;;;;72.00;30.73;;;1.40;99.90;;;;;;5074777;28;20024;-55
2022/01/22 12:40:53;;;;;;;76.47;28.17;;;1.40;99.90;;;;;;5074508;28;20028;-55
2022/01/22 12:43:28;;;;;;;64.13;28.13;;;1.40;99.90;;;;;;5074587;28;20382;-55
2022/01/22 12:45:56;;;;;;;79.18;32.50;;;1.50;99.90;;;;;;5074536;28;20047;-55
2022/01/22 12:48:25;;;;;;;91.35;37.08;;;1.50;99.90;;;;;;5074720;28;20020;-55
2022/01/22 12:50:51;;;;;;;68.13;25.30;;;1.50;99.90;;;;;;5074569;28;20104;-55
2022/01/22 12:53:17;;;;;;;60.13;20.85;;;1.50;99.90;;;;;;5074623;28;20520;-55
2022/01/22 12:58:27;;;;;;;47.85;19.48;;;1.50;99.90;;;;;;5074515;28;20486;-55
2022/01/22 13:01:11;;;;;;;45.08;19.63;;;1.60;99.90;;;;;;5074402;28;20095;-55
2022/01/22 13:03:41;;;;;;;62.47;25.98;;;1.60;99.90;;;;;;5074398;28;20111;-55
2022/01/22 13:06:07;;;;;;;51.40;22.02;;;1.70;99.90;;;;;;5074376;28;20348;-55
2022/01/22 13:08:59;;;;;;;33.80;17.25;;;1.60;99.90;;;;;;5074430;28;20093;-55
2022/01/22 13:11:45;;;;;;;35.15;16.33;;;1.70;99.90;;;;;;5074312;28;20533;-56
2022/01/22 13:14:15;;;;;;;45.90;16.27;;;1.70;99.90;;;;;;5074088;28;20114;-55
2022/01/22 13:16:53;;;;;;;33.03;17.15;;;1.70;99.90;;;;;;5074302;28;20029;-55
2022/01/22 13:19:21;;;;;;;40.33;18.20;;;1.80;99.90;;;;;;5073924;28;20463;-56
2022/01/22 13:21:53;;;;;;;41.17;19.30;;;1.90;99.90;;;;;;5074199;28;20524;-55
2022/01/22 13:24:25;;;;;;;35.10;17.10;;;2.00;99.90;;;;;;5074053;28;20036;-56
2022/01/22 13:26:58;;;;;;;38.53;17.88;;;2.00;99.90;;;;;;5077513;28;20029;-55
2022/01/22 13:29:34;;;;;;;40.53;16.58;;;2.10;99.90;;;;;;5078333;28;20029;-55
2022/01/22 13:32:09;;;;;;;32.08;16.50;;;2.20;99.90;;;;;;5038116;28;20029;-56
2022/01/22 13:35:27;;;;;;;40.60;18.38;;;2.30;99.90;;;;;;5038203;28;20056;-56
2022/01/22 13:49:02;;;;;;;32.83;15.30;;;2.80;99.90;;;;;;5037958;28;20021;-56
2022/01/22 13:51:29;;;;;;;33.25;15.85;;;3.00;99.90;;;;;;5037657;28;20022;-56
2022/01/22 13:53:57;;;;;;;32.55;14.32;;;3.10;99.90;;;;;;5037706;28;20036;-56
2022/01/22 13:56:56;;;;;;;25.83;12.88;;;3.30;99.90;;;;;;5037901;28;20109;-56
2022/01/22 13:59:26;;;;;;;19.60;12.32;;;3.60;99.90;;;;;;5029638;28;20053;-56
2022/01/22 14:04:46;;;;;;;19.70;11.13;;;4.30;99.90;;;;;;5037618;28;20364;-56
2022/01/22 14:07:26;;;;;;;22.75;11.38;;;4.60;99.90;;;;;;5053012;28;20033;-56
2022/01/22 14:09:56;;;;;;;18.10;10.40;;;4.70;99.90;;;;;;5037511;28;20038;-56
2022/01/22 14:12:50;;;;;;;;;;;4.70;99.90;;;;;;5037990;28;20025;-56
2022/01/22 14:15:32;;;;;;;27.83;12.15;;;4.50;99.90;;;;;;5007311;28;20314;-56
2022/01/22 14:20:53;;;;;;;27.75;11.38;;;5.00;99.90;;;;;;5037336;28;20122;-56
2022/01/22 14:23:30;;;;;;;18.65;10.55;;;5.50;99.90;;;;;;5037299;28;20037;-56
2022/01/22 14:26:16;;;;;;;19.42;9.55;;;5.60;99.90;;;;;;5037555;28;20112;-56
2022/01/22 14:28:44;;;;;;;20.05;9.35;;;6.10;99.90;;;;;;5036970;28;20037;-56
2022/01/22 14:31:47;;;;;;;19.38;9.63;;;5.70;99.90;;;;;;5065050;28;20434;-56
2022/01/22 14:34:28;;;;;;;14.43;9.27;;;5.20;99.90;;;;;;5043563;28;20051;-56
2022/01/22 14:36:54;;;;;;;15.18;9.40;;;4.80;99.90;;;;;;5055880;28;20098;-55
2022/01/22 14:44:44;;;;;;;31.65;13.90;;;4.40;99.90;;;;;;5056792;28;20048;-55
2022/01/22 14:47:15;;;;;;;22.85;12.23;;;4.10;99.90;;;;;;5056855;28;20049;-55
2022/01/22 14:50:02;;;;;;;36.75;17.83;;;4.00;99.90;;;;;;5056570;28;20029;-55
2022/01/22 14:52:29;;;;;;;29.50;13.98;;;3.80;99.90;;;;;;5056787;28;20155;-55
2022/01/22 14:55:00;;;;;;;21.63;11.88;;;3.40;99.90;;;;;;5056801;28;20164;-55
2022/01/22 14:57:32;;;;;;;19.70;11.00;;;3.20;99.90;;;;;;5057188;28;20021;-55
2022/01/22 15:00:06;;;;;;;23.70;12.68;;;3.10;99.90;;;;;;5056909;28;20025;-55